Historical Weather Data

Kanab, UT VWS

Date ET
(Inches)
Rain
(Inches)
Temp °F
Humidity
Avg
Wind MPH
Avg
Solar Wm2
Avg
High Ave Low
10/01/2018 12:00 am 0.062 0.11 80.0 66.0 55.0 59 1.9 72
10/02/2018 12:00 am 0.029 0.74 71.0 63.8 55.0 76 1.9 18
10/03/2018 12:00 am 0.064 0.20 76.0 64.8 53.0 72 3.1 58
10/04/2018 12:00 am 0.122 0.29 70.0 60.3 51.0 64 4.0 184
10/05/2018 12:00 am 0.100 0.00 69.0 58.5 48.0 58 1.9 171
10/06/2018 12:00 am 0.066 0.29 62.0 52.1 46.0 65 2.6 88
10/07/2018 12:00 am 0.057 0.11 56.0 48.2 44.0 70 2.0 91
10/08/2018 12:00 am 0.073 0.01 56.0 48.5 42.0 67 1.5 151
10/09/2018 12:00 am 0.107 0.00 63.0 50.2 37.0 58 2.3 221
10/10/2018 12:00 am 0.105 0.01 64.0 55.1 44.7 53 3.0 178
10/11/2018 12:00 am 0.061 0.28 59.0 52.0 46.0 70 1.7 126
10/12/2018 12:00 am 0.109 0.00 62.0 52.6 43.0 65 3.8 219
10/13/2018 12:00 am 0.109 0.00 67.0 54.1 42.0 57 2.3 215
10/14/2018 12:00 am 0.111 0.00 56.0 47.3 39.0 44 3.0 226
10/15/2018 12:00 am 0.108 0.00 54.0 41.7 32.0 37 4.7 222
10/16/2018 12:00 am 0.105 0.01 57.0 45.4 34.7 34 3.9 195
10/17/2018 12:00 am 0.068 0.01 53.0 46.1 41.0 66 4.0 142
10/18/2018 12:00 am 0.091 0.00 61.0 47.6 36.0 63 2.6 210
10/19/2018 12:00 am 0.111 0.00 65.0 50.4 38.0 53 4.6 209
10/20/2018 12:00 am 0.106 0.00 67.0 54.5 43.0 53 4.0 177
10/21/2018 12:00 am 0.074 0.07 64.0 55.5 49.0 62 3.1 120
10/22/2018 12:00 am 0.037 0.14 63.0 53.1 48.0 74 2.2 54
10/23/2018 12:00 am 0.091 0.00 63.0 53.0 44.0 73 2.7 180
10/24/2018 12:00 am 0.088 0.00 66.0 53.7 43.0 65 1.9 179
10/25/2018 12:00 am 0.105 0.00 70.0 54.2 41.0 50 2.2 195
10/26/2018 12:00 am 0.099 0.00 70.0 53.2 39.0 46 2.4 198
10/27/2018 12:00 am 0.099 0.00 73.0 54.7 39.0 45 2.1 193
10/28/2018 12:00 am 0.106 0.00 73.0 56.2 41.0 41 2.4 188
10/29/2018 12:00 am 0.104 0.00 74.0 56.0 43.0 40 3.2 173
10/30/2018 12:00 am 0.082 0.00 62.0 50.6 43.0 50 3.3 149
10/31/2018 12:00 am 0.078 0.00 58.0 44.1 33.0 44 2.7 174